sensor_id;sensor_type;location;lat;lon;timestamp;P1;durP1;ratioP1;P2;durP2;ratioP2
19231;SDS011;9750;48.730;10.294;2022-07-25T00:01:22;9.70;;;8.95;;
19231;SDS011;9750;48.730;10.294;2022-07-25T00:03:49;10.02;;;9.00;;
19231;SDS011;9750;48.730;10.294;2022-07-25T00:06:17;10.50;;;9.50;;
19231;SDS011;9750;48.730;10.294;2022-07-25T00:08:44;10.18;;;9.30;;
19231;SDS011;9750;48.730;10.294;2022-07-25T00:11:12;9.43;;;8.68;;
19231;SDS011;9750;48.730;10.294;2022-07-25T00:13:39;9.65;;;8.95;;
19231;SDS011;9750;48.730;10.294;2022-07-25T00:16:08;10.68;;;9.40;;
19231;SDS011;9750;48.730;10.294;2022-07-25T00:18:35;10.00;;;9.00;;
19231;SDS011;9750;48.730;10.294;2022-07-25T00:21:03;9.70;;;8.80;;
19231;SDS011;9750;48.730;10.294;2022-07-25T00:23:30;10.20;;;9.20;;
19231;SDS011;9750;48.730;10.294;2022-07-25T00:25:57;10.80;;;9.88;;
19231;SDS011;9750;48.730;10.294;2022-07-25T00:28:25;10.70;;;9.70;;
19231;SDS011;9750;48.730;10.294;2022-07-25T00:30:52;10.38;;;9.38;;
19231;SDS011;9750;48.730;10.294;2022-07-25T00:33:21;10.65;;;9.65;;
19231;SDS011;9750;48.730;10.294;2022-07-25T00:35:49;12.52;;;9.77;;
19231;SDS011;9750;48.730;10.294;2022-07-25T00:38:16;10.10;;;9.18;;
19231;SDS011;9750;48.730;10.294;2022-07-25T00:40:44;10.35;;;9.27;;
19231;SDS011;9750;48.730;10.294;2022-07-25T00:43:11;10.32;;;9.38;;
19231;SDS011;9750;48.730;10.294;2022-07-25T00:45:38;9.85;;;9.05;;
19231;SDS011;9750;48.730;10.294;2022-07-25T00:48:06;10.30;;;9.40;;
19231;SDS011;9750;48.730;10.294;2022-07-25T00:50:35;10.02;;;9.23;;
19231;SDS011;9750;48.730;10.294;2022-07-25T00:53:02;10.43;;;9.52;;
19231;SDS011;9750;48.730;10.294;2022-07-25T00:55:30;10.13;;;9.20;;
19231;SDS011;9750;48.730;10.294;2022-07-25T00:57:58;11.05;;;10.07;;
19231;SDS011;9750;48.730;10.294;2022-07-25T01:00:25;10.63;;;9.45;;
19231;SDS011;9750;48.730;10.294;2022-07-25T01:02:53;13.35;;;10.07;;
19231;SDS011;9750;48.730;10.294;2022-07-25T01:05:20;11.38;;;10.32;;
19231;SDS011;9750;48.730;10.294;2022-07-25T01:07:49;10.88;;;9.82;;
19231;SDS011;9750;48.730;10.294;2022-07-25T01:10:17;10.70;;;9.65;;
19231;SDS011;9750;48.730;10.294;2022-07-25T01:13:01;10.63;;;9.70;;
19231;SDS011;9750;48.730;10.294;2022-07-25T01:15:29;10.07;;;9.27;;
19231;SDS011;9750;48.730;10.294;2022-07-25T01:17:56;10.77;;;9.88;;
19231;SDS011;9750;48.730;10.294;2022-07-25T01:20:25;12.20;;;11.00;;
19231;SDS011;9750;48.730;10.294;2022-07-25T01:22:54;10.82;;;9.93;;
19231;SDS011;9750;48.730;10.294;2022-07-25T01:25:22;10.80;;;9.90;;
19231;SDS011;9750;48.730;10.294;2022-07-25T01:27:50;10.13;;;9.32;;
19231;SDS011;9750;48.730;10.294;2022-07-25T01:30:19;10.18;;;9.38;;
19231;SDS011;9750;48.730;10.294;2022-07-25T01:35:32;10.05;;;9.05;;
19231;SDS011;9750;48.730;10.294;2022-07-25T01:37:59;10.98;;;9.98;;
19231;SDS011;9750;48.730;10.294;2022-07-25T01:40:27;11.20;;;10.13;;
19231;SDS011;9750;48.730;10.294;2022-07-25T01:45:43;10.43;;;9.52;;
19231;SDS011;9750;48.730;10.294;2022-07-25T01:48:11;11.63;;;10.63;;
19231;SDS011;9750;48.730;10.294;2022-07-25T01:50:39;11.77;;;10.77;;
19231;SDS011;9750;48.730;10.294;2022-07-25T01:53:07;11.18;;;10.27;;
19231;SDS011;9750;48.730;10.294;2022-07-25T01:55:34;11.48;;;10.35;;
19231;SDS011;9750;48.730;10.294;2022-07-25T01:58:02;11.02;;;10.13;;
19231;SDS011;9750;48.730;10.294;2022-07-25T02:00:29;10.77;;;9.77;;
19231;SDS011;9750;48.730;10.294;2022-07-25T02:02:57;11.35;;;10.25;;
19231;SDS011;9750;48.730;10.294;2022-07-25T02:05:43;12.30;;;11.05;;
19231;SDS011;9750;48.730;10.294;2022-07-25T02:08:10;11.65;;;10.55;;
19231;SDS011;9750;48.730;10.294;2022-07-25T02:10:37;12.23;;;11.05;;
19231;SDS011;9750;48.730;10.294;2022-07-25T02:13:05;11.77;;;10.80;;
19231;SDS011;9750;48.730;10.294;2022-07-25T02:15:32;12.07;;;11.07;;
19231;SDS011;9750;48.730;10.294;2022-07-25T02:18:00;12.10;;;11.00;;
19231;SDS011;9750;48.730;10.294;2022-07-25T02:20:28;13.38;;;12.27;;
19231;SDS011;9750;48.730;10.294;2022-07-25T02:26:25;12.73;;;11.63;;
19231;SDS011;9750;48.730;10.294;2022-07-25T02:28:52;17.00;;;15.32;;
19231;SDS011;9750;48.730;10.294;2022-07-25T02:31:20;13.70;;;12.50;;
19231;SDS011;9750;48.730;10.294;2022-07-25T02:33:47;14.02;;;12.57;;
19231;SDS011;9750;48.730;10.294;2022-07-25T02:36:15;14.85;;;13.50;;
19231;SDS011;9750;48.730;10.294;2022-07-25T02:38:42;14.85;;;13.48;;
19231;SDS011;9750;48.730;10.294;2022-07-25T02:41:09;14.38;;;13.05;;
19231;SDS011;9750;48.730;10.294;2022-07-25T02:43:38;13.68;;;12.48;;
19231;SDS011;9750;48.730;10.294;2022-07-25T02:46:06;12.55;;;11.45;;
19231;SDS011;9750;48.730;10.294;2022-07-25T02:48:33;14.10;;;12.70;;
19231;SDS011;9750;48.730;10.294;2022-07-25T02:51:00;13.95;;;12.73;;
19231;SDS011;9750;48.730;10.294;2022-07-25T02:53:28;13.07;;;11.88;;
19231;SDS011;9750;48.730;10.294;2022-07-25T02:55:55;13.43;;;12.15;;
19231;SDS011;9750;48.730;10.294;2022-07-25T02:58:22;14.23;;;12.85;;
19231;SDS011;9750;48.730;10.294;2022-07-25T03:00:51;14.00;;;12.55;;
19231;SDS011;9750;48.730;10.294;2022-07-25T03:03:18;14.15;;;12.80;;
19231;SDS011;9750;48.730;10.294;2022-07-25T03:05:46;14.13;;;12.75;;
19231;SDS011;9750;48.730;10.294;2022-07-25T03:08:13;13.48;;;12.18;;
19231;SDS011;9750;48.730;10.294;2022-07-25T03:10:41;13.65;;;12.38;;
19231;SDS011;9750;48.730;10.294;2022-07-25T03:13:08;13.32;;;12.18;;
19231;SDS011;9750;48.730;10.294;2022-07-25T03:15:35;13.60;;;12.40;;
19231;SDS011;9750;48.730;10.294;2022-07-25T03:18:04;13.00;;;11.90;;
19231;SDS011;9750;48.730;10.294;2022-07-25T03:20:32;13.40;;;12.20;;
19231;SDS011;9750;48.730;10.294;2022-07-25T03:22:59;14.02;;;12.70;;
19231;SDS011;9750;48.730;10.294;2022-07-25T03:25:26;13.32;;;12.20;;
19231;SDS011;9750;48.730;10.294;2022-07-25T03:27:54;12.85;;;11.75;;
19231;SDS011;9750;48.730;10.294;2022-07-25T03:30:21;14.13;;;12.82;;
19231;SDS011;9750;48.730;10.294;2022-07-25T03:32:49;13.00;;;11.90;;
19231;SDS011;9750;48.730;10.294;2022-07-25T03:35:17;15.25;;;13.95;;
19231;SDS011;9750;48.730;10.294;2022-07-25T03:37:45;14.82;;;13.43;;
19231;SDS011;9750;48.730;10.294;2022-07-25T03:40:12;13.73;;;12.52;;
19231;SDS011;9750;48.730;10.294;2022-07-25T03:42:40;13.95;;;12.70;;
19231;SDS011;9750;48.730;10.294;2022-07-25T03:45:08;13.98;;;12.48;;
19231;SDS011;9750;48.730;10.294;2022-07-25T03:47:36;15.00;;;13.63;;
19231;SDS011;9750;48.730;10.294;2022-07-25T03:50:03;14.80;;;13.50;;
19231;SDS011;9750;48.730;10.294;2022-07-25T03:52:33;13.40;;;12.23;;
19231;SDS011;9750;48.730;10.294;2022-07-25T03:55:02;15.95;;;14.35;;
19231;SDS011;9750;48.730;10.294;2022-07-25T03:57:30;14.50;;;13.20;;
19231;SDS011;9750;48.730;10.294;2022-07-25T03:59:57;15.27;;;13.73;;
19231;SDS011;9750;48.730;10.294;2022-07-25T04:02:25;15.77;;;14.47;;
19231;SDS011;9750;48.730;10.294;2022-07-25T04:04:52;16.08;;;14.55;;
19231;SDS011;9750;48.730;10.294;2022-07-25T04:07:19;15.23;;;13.93;;
19231;SDS011;9750;48.730;10.294;2022-07-25T04:09:48;15.88;;;14.38;;
19231;SDS011;9750;48.730;10.294;2022-07-25T04:12:15;16.53;;;15.03;;
19231;SDS011;9750;48.730;10.294;2022-07-25T04:14:43;15.27;;;13.93;;
19231;SDS011;9750;48.730;10.294;2022-07-25T04:17:10;15.80;;;14.37;;
19231;SDS011;9750;48.730;10.294;2022-07-25T04:19:38;16.60;;;15.20;;
19231;SDS011;9750;48.730;10.294;2022-07-25T04:22:05;15.30;;;13.90;;
19231;SDS011;9750;48.730;10.294;2022-07-25T04:24:32;16.10;;;14.70;;
19231;SDS011;9750;48.730;10.294;2022-07-25T04:27:01;15.88;;;14.50;;
19231;SDS011;9750;48.730;10.294;2022-07-25T04:29:29;16.07;;;14.60;;
19231;SDS011;9750;48.730;10.294;2022-07-25T04:31:56;15.63;;;14.33;;
19231;SDS011;9750;48.730;10.294;2022-07-25T04:34:23;17.50;;;16.00;;
19231;SDS011;9750;48.730;10.294;2022-07-25T04:36:51;16.07;;;14.67;;
19231;SDS011;9750;48.730;10.294;2022-07-25T04:39:18;16.20;;;14.88;;
19231;SDS011;9750;48.730;10.294;2022-07-25T04:41:45;16.02;;;14.63;;
19231;SDS011;9750;48.730;10.294;2022-07-25T04:44:14;15.83;;;14.43;;
19231;SDS011;9750;48.730;10.294;2022-07-25T04:46:42;17.30;;;15.60;;
19231;SDS011;9750;48.730;10.294;2022-07-25T04:49:09;16.40;;;14.93;;
19231;SDS011;9750;48.730;10.294;2022-07-25T04:51:36;16.33;;;14.93;;
19231;SDS011;9750;48.730;10.294;2022-07-25T04:54:04;16.50;;;14.90;;
19231;SDS011;9750;48.730;10.294;2022-07-25T04:56:31;17.45;;;15.85;;
19231;SDS011;9750;48.730;10.294;2022-07-25T04:58:59;16.00;;;14.68;;
19231;SDS011;9750;48.730;10.294;2022-07-25T05:01:28;16.83;;;15.20;;
19231;SDS011;9750;48.730;10.294;2022-07-25T05:03:55;16.23;;;14.73;;
19231;SDS011;9750;48.730;10.294;2022-07-25T05:06:22;16.15;;;14.65;;
19231;SDS011;9750;48.730;10.294;2022-07-25T05:08:50;17.40;;;15.65;;
19231;SDS011;9750;48.730;10.294;2022-07-25T05:11:17;17.73;;;16.13;;
19231;SDS011;9750;48.730;10.294;2022-07-25T05:13:44;19.25;;;15.27;;
19231;SDS011;9750;48.730;10.294;2022-07-25T05:16:12;16.98;;;15.18;;
19231;SDS011;9750;48.730;10.294;2022-07-25T05:18:41;16.33;;;14.50;;
19231;SDS011;9750;48.730;10.294;2022-07-25T05:21:08;18.60;;;15.30;;
19231;SDS011;9750;48.730;10.294;2022-07-25T05:23:36;18.55;;;15.50;;
19231;SDS011;9750;48.730;10.294;2022-07-25T05:26:04;17.20;;;15.05;;
19231;SDS011;9750;48.730;10.294;2022-07-25T05:28:31;17.65;;;15.68;;
19231;SDS011;9750;48.730;10.294;2022-07-25T05:30:59;18.35;;;14.23;;
19231;SDS011;9750;48.730;10.294;2022-07-25T05:33:26;18.52;;;15.10;;
19231;SDS011;9750;48.730;10.294;2022-07-25T05:35:55;16.65;;;14.85;;
19231;SDS011;9750;48.730;10.294;2022-07-25T05:38:22;15.93;;;14.32;;
19231;SDS011;9750;48.730;10.294;2022-07-25T05:40:50;16.20;;;14.52;;
19231;SDS011;9750;48.730;10.294;2022-07-25T05:43:17;14.57;;;13.13;;
19231;SDS011;9750;48.730;10.294;2022-07-25T05:45:45;13.75;;;12.50;;
19231;SDS011;9750;48.730;10.294;2022-07-25T05:48:12;13.88;;;12.55;;
19231;SDS011;9750;48.730;10.294;2022-07-25T05:50:40;14.43;;;13.02;;
19231;SDS011;9750;48.730;10.294;2022-07-25T05:53:09;13.93;;;12.57;;
19231;SDS011;9750;48.730;10.294;2022-07-25T05:55:36;13.35;;;12.13;;
19231;SDS011;9750;48.730;10.294;2022-07-25T05:58:03;13.85;;;12.75;;
19231;SDS011;9750;48.730;10.294;2022-07-25T06:00:31;13.45;;;12.30;;
19231;SDS011;9750;48.730;10.294;2022-07-25T06:02:58;15.05;;;13.68;;
19231;SDS011;9750;48.730;10.294;2022-07-25T06:05:26;13.32;;;11.98;;
19231;SDS011;9750;48.730;10.294;2022-07-25T06:07:53;13.95;;;12.85;;
19231;SDS011;9750;48.730;10.294;2022-07-25T06:10:22;14.27;;;12.98;;
19231;SDS011;9750;48.730;10.294;2022-07-25T06:12:50;14.57;;;13.27;;
19231;SDS011;9750;48.730;10.294;2022-07-25T06:15:17;15.10;;;13.52;;
19231;SDS011;9750;48.730;10.294;2022-07-25T06:17:44;14.23;;;12.90;;
19231;SDS011;9750;48.730;10.294;2022-07-25T06:20:12;13.63;;;12.52;;
19231;SDS011;9750;48.730;10.294;2022-07-25T06:22:39;14.63;;;13.38;;
19231;SDS011;9750;48.730;10.294;2022-07-25T06:25:07;15.65;;;14.25;;
19231;SDS011;9750;48.730;10.294;2022-07-25T06:27:37;13.70;;;12.57;;
19231;SDS011;9750;48.730;10.294;2022-07-25T06:30:05;15.05;;;13.85;;
19231;SDS011;9750;48.730;10.294;2022-07-25T06:32:34;15.30;;;13.85;;
19231;SDS011;9750;48.730;10.294;2022-07-25T06:35:01;15.45;;;14.18;;
19231;SDS011;9750;48.730;10.294;2022-07-25T06:37:29;15.05;;;13.85;;
19231;SDS011;9750;48.730;10.294;2022-07-25T06:39:56;14.02;;;12.82;;
19231;SDS011;9750;48.730;10.294;2022-07-25T06:42:25;14.63;;;13.32;;
19231;SDS011;9750;48.730;10.294;2022-07-25T06:44:57;14.60;;;13.25;;
19231;SDS011;9750;48.730;10.294;2022-07-25T06:47:24;15.32;;;13.88;;
19231;SDS011;9750;48.730;10.294;2022-07-25T06:49:51;14.73;;;13.48;;
19231;SDS011;9750;48.730;10.294;2022-07-25T06:52:19;14.57;;;13.35;;
19231;SDS011;9750;48.730;10.294;2022-07-25T06:54:46;13.95;;;12.75;;
19231;SDS011;9750;48.730;10.294;2022-07-25T06:57:13;14.82;;;13.13;;
19231;SDS011;9750;48.730;10.294;2022-07-25T06:59:40;14.13;;;12.93;;
19231;SDS011;9750;48.730;10.294;2022-07-25T07:02:10;13.60;;;12.40;;
19231;SDS011;9750;48.730;10.294;2022-07-25T07:04:38;13.38;;;12.27;;
19231;SDS011;9750;48.730;10.294;2022-07-25T07:07:05;13.85;;;12.73;;
19231;SDS011;9750;48.730;10.294;2022-07-25T07:09:32;14.45;;;12.95;;
19231;SDS011;9750;48.730;10.294;2022-07-25T07:12:00;14.23;;;13.13;;
19231;SDS011;9750;48.730;10.294;2022-07-25T07:14:27;13.80;;;12.70;;
19231;SDS011;9750;48.730;10.294;2022-07-25T07:16:55;14.00;;;12.80;;
19231;SDS011;9750;48.730;10.294;2022-07-25T07:19:24;14.40;;;13.10;;
19231;SDS011;9750;48.730;10.294;2022-07-25T07:21:51;14.63;;;13.32;;
19231;SDS011;9750;48.730;10.294;2022-07-25T07:24:18;13.82;;;12.73;;
19231;SDS011;9750;48.730;10.294;2022-07-25T07:26:46;14.82;;;13.43;;
19231;SDS011;9750;48.730;10.294;2022-07-25T07:29:13;14.50;;;13.20;;
19231;SDS011;9750;48.730;10.294;2022-07-25T07:31:40;14.60;;;13.32;;
19231;SDS011;9750;48.730;10.294;2022-07-25T07:34:08;14.00;;;12.90;;
19231;SDS011;9750;48.730;10.294;2022-07-25T07:36:37;15.68;;;14.13;;
19231;SDS011;9750;48.730;10.294;2022-07-25T07:39:04;13.45;;;12.35;;
19231;SDS011;9750;48.730;10.294;2022-07-25T07:41:32;14.20;;;13.00;;
19231;SDS011;9750;48.730;10.294;2022-07-25T07:43:59;13.80;;;12.70;;
19231;SDS011;9750;48.730;10.294;2022-07-25T07:46:26;13.20;;;12.15;;
19231;SDS011;9750;48.730;10.294;2022-07-25T07:48:54;14.10;;;12.80;;
19231;SDS011;9750;48.730;10.294;2022-07-25T07:51:21;13.38;;;12.18;;
19231;SDS011;9750;48.730;10.294;2022-07-25T07:53:50;13.30;;;12.20;;
19231;SDS011;9750;48.730;10.294;2022-07-25T07:56:35;13.52;;;12.43;;
19231;SDS011;9750;48.730;10.294;2022-07-25T07:59:03;13.38;;;12.25;;
19231;SDS011;9750;48.730;10.294;2022-07-25T08:01:30;12.85;;;11.75;;
19231;SDS011;9750;48.730;10.294;2022-07-25T08:03:58;13.73;;;12.60;;
19231;SDS011;9750;48.730;10.294;2022-07-25T08:06:25;13.43;;;12.20;;
19231;SDS011;9750;48.730;10.294;2022-07-25T08:08:54;13.45;;;12.25;;
19231;SDS011;9750;48.730;10.294;2022-07-25T08:11:22;13.80;;;12.70;;
19231;SDS011;9750;48.730;10.294;2022-07-25T08:13:50;13.95;;;12.85;;
19231;SDS011;9750;48.730;10.294;2022-07-25T08:16:18;13.55;;;12.45;;
19231;SDS011;9750;48.730;10.294;2022-07-25T08:18:45;12.80;;;11.80;;
19231;SDS011;9750;48.730;10.294;2022-07-25T08:21:12;12.98;;;11.88;;
19231;SDS011;9750;48.730;10.294;2022-07-25T08:23:40;12.98;;;11.88;;
19231;SDS011;9750;48.730;10.294;2022-07-25T08:26:11;13.25;;;12.15;;
19231;SDS011;9750;48.730;10.294;2022-07-25T08:28:40;14.20;;;12.00;;
19231;SDS011;9750;48.730;10.294;2022-07-25T08:31:07;13.18;;;11.98;;
19231;SDS011;9750;48.730;10.294;2022-07-25T08:33:35;13.27;;;12.13;;
19231;SDS011;9750;48.730;10.294;2022-07-25T08:36:03;14.00;;;12.90;;
19231;SDS011;9750;48.730;10.294;2022-07-25T08:38:30;13.98;;;12.77;;
19231;SDS011;9750;48.730;10.294;2022-07-25T08:40:59;13.77;;;12.57;;
19231;SDS011;9750;48.730;10.294;2022-07-25T08:43:29;13.23;;;12.13;;
19231;SDS011;9750;48.730;10.294;2022-07-25T08:45:59;13.15;;;11.82;;
19231;SDS011;9750;48.730;10.294;2022-07-25T08:48:27;13.00;;;11.88;;
19231;SDS011;9750;48.730;10.294;2022-07-25T08:50:55;12.93;;;11.70;;
19231;SDS011;9750;48.730;10.294;2022-07-25T08:53:23;12.63;;;11.57;;
19231;SDS011;9750;48.730;10.294;2022-07-25T08:55:51;12.32;;;11.20;;
19231;SDS011;9750;48.730;10.294;2022-07-25T08:58:19;12.70;;;11.50;;
19231;SDS011;9750;48.730;10.294;2022-07-25T09:00:47;13.50;;;12.23;;
19231;SDS011;9750;48.730;10.294;2022-07-25T09:03:15;12.30;;;11.35;;
19231;SDS011;9750;48.730;10.294;2022-07-25T09:05:42;12.00;;;11.10;;
19231;SDS011;9750;48.730;10.294;2022-07-25T09:08:10;12.77;;;11.65;;
19231;SDS011;9750;48.730;10.294;2022-07-25T09:10:38;12.63;;;11.55;;
19231;SDS011;9750;48.730;10.294;2022-07-25T09:16:37;12.85;;;11.75;;
19231;SDS011;9750;48.730;10.294;2022-07-25T09:19:06;13.57;;;11.98;;
19231;SDS011;9750;48.730;10.294;2022-07-25T09:21:38;13.10;;;12.00;;
19231;SDS011;9750;48.730;10.294;2022-07-25T09:24:07;13.02;;;11.93;;
19231;SDS011;9750;48.730;10.294;2022-07-25T09:26:46;13.73;;;12.63;;
19231;SDS011;9750;48.730;10.294;2022-07-25T09:29:16;14.15;;;12.75;;
19231;SDS011;9750;48.730;10.294;2022-07-25T09:31:46;13.50;;;12.45;;
19231;SDS011;9750;48.730;10.294;2022-07-25T09:34:15;13.20;;;12.07;;
19231;SDS011;9750;48.730;10.294;2022-07-25T09:36:55;14.25;;;12.15;;
19231;SDS011;9750;48.730;10.294;2022-07-25T09:39:31;13.13;;;11.98;;
19231;SDS011;9750;48.730;10.294;2022-07-25T09:42:13;13.15;;;12.00;;
19231;SDS011;9750;48.730;10.294;2022-07-25T09:44:56;13.70;;;12.50;;
19231;SDS011;9750;48.730;10.294;2022-07-25T09:47:30;12.75;;;11.65;;
19231;SDS011;9750;48.730;10.294;2022-07-25T09:49:58;12.65;;;11.43;;
19231;SDS011;9750;48.730;10.294;2022-07-25T09:52:25;13.25;;;12.23;;
19231;SDS011;9750;48.730;10.294;2022-07-25T09:54:53;13.73;;;12.23;;
19231;SDS011;9750;48.730;10.294;2022-07-25T09:57:20;12.18;;;11.18;;
19231;SDS011;9750;48.730;10.294;2022-07-25T09:59:49;12.32;;;11.23;;
19231;SDS011;9750;48.730;10.294;2022-07-25T10:02:22;12.52;;;11.43;;
19231;SDS011;9750;48.730;10.294;2022-07-25T10:05:06;13.35;;;12.18;;
19231;SDS011;9750;48.730;10.294;2022-07-25T10:07:38;12.18;;;11.15;;
19231;SDS011;9750;48.730;10.294;2022-07-25T10:10:07;11.05;;;10.10;;
19231;SDS011;9750;48.730;10.294;2022-07-25T10:12:56;13.32;;;11.93;;
19231;SDS011;9750;48.730;10.294;2022-07-25T10:15:25;12.10;;;11.20;;
19231;SDS011;9750;48.730;10.294;2022-07-25T10:18:02;12.73;;;11.60;;
19231;SDS011;9750;48.730;10.294;2022-07-25T10:20:32;12.18;;;11.07;;
19231;SDS011;9750;48.730;10.294;2022-07-25T10:23:00;12.50;;;11.40;;
19231;SDS011;9750;48.730;10.294;2022-07-25T10:25:28;12.73;;;11.45;;
19231;SDS011;9750;48.730;10.294;2022-07-25T10:27:57;12.52;;;11.35;;
19231;SDS011;9750;48.730;10.294;2022-07-25T10:30:32;11.70;;;10.70;;
19231;SDS011;9750;48.730;10.294;2022-07-25T10:33:02;13.00;;;11.70;;
19231;SDS011;9750;48.730;10.294;2022-07-25T10:35:31;11.65;;;10.65;;
19231;SDS011;9750;48.730;10.294;2022-07-25T10:38:01;11.63;;;10.52;;
19231;SDS011;9750;48.730;10.294;2022-07-25T10:40:32;10.45;;;9.45;;
19231;SDS011;9750;48.730;10.294;2022-07-25T10:43:01;9.90;;;9.10;;
19231;SDS011;9750;48.730;10.294;2022-07-25T10:45:36;10.52;;;9.52;;
19231;SDS011;9750;48.730;10.294;2022-07-25T10:48:07;11.00;;;9.80;;
19231;SDS011;9750;48.730;10.294;2022-07-25T10:50:47;11.07;;;10.05;;
19231;SDS011;9750;48.730;10.294;2022-07-25T10:53:25;5.60;;;5.20;;
19231;SDS011;9750;48.730;10.294;2022-07-25T10:55:57;5.90;;;5.32;;
19231;SDS011;9750;48.730;10.294;2022-07-25T10:58:38;6.13;;;5.53;;
19231;SDS011;9750;48.730;10.294;2022-07-25T11:01:07;5.30;;;4.90;;
19231;SDS011;9750;48.730;10.294;2022-07-25T11:03:37;4.97;;;4.47;;
19231;SDS011;9750;48.730;10.294;2022-07-25T11:06:05;5.38;;;4.97;;
19231;SDS011;9750;48.730;10.294;2022-07-25T11:08:33;5.35;;;4.90;;
19231;SDS011;9750;48.730;10.294;2022-07-25T11:11:01;6.00;;;5.47;;
19231;SDS011;9750;48.730;10.294;2022-07-25T11:13:28;5.38;;;4.97;;
19231;SDS011;9750;48.730;10.294;2022-07-25T11:15:56;5.03;;;4.63;;
19231;SDS011;9750;48.730;10.294;2022-07-25T11:18:31;4.40;;;4.10;;
19231;SDS011;9750;48.730;10.294;2022-07-25T11:21:03;4.53;;;4.22;;
19231;SDS011;9750;48.730;10.294;2022-07-25T11:23:31;4.85;;;4.45;;
19231;SDS011;9750;48.730;10.294;2022-07-25T11:26:08;4.90;;;4.43;;
19231;SDS011;9750;48.730;10.294;2022-07-25T11:28:38;5.22;;;4.72;;
19231;SDS011;9750;48.730;10.294;2022-07-25T11:31:06;5.50;;;5.10;;
19231;SDS011;9750;48.730;10.294;2022-07-25T11:33:34;6.13;;;5.05;;
19231;SDS011;9750;48.730;10.294;2022-07-25T11:36:03;4.95;;;4.55;;
19231;SDS011;9750;48.730;10.294;2022-07-25T11:38:31;5.40;;;5.00;;
19231;SDS011;9750;48.730;10.294;2022-07-25T11:40:59;6.90;;;5.40;;
19231;SDS011;9750;48.730;10.294;2022-07-25T11:43:27;5.47;;;5.07;;
19231;SDS011;9750;48.730;10.294;2022-07-25T11:45:55;5.15;;;4.72;;
19231;SDS011;9750;48.730;10.294;2022-07-25T11:48:31;6.03;;;5.47;;
19231;SDS011;9750;48.730;10.294;2022-07-25T11:51:12;5.85;;;5.25;;
19231;SDS011;9750;48.730;10.294;2022-07-25T11:53:42;6.53;;;6.03;;
19231;SDS011;9750;48.730;10.294;2022-07-25T11:56:12;6.18;;;5.68;;
19231;SDS011;9750;48.730;10.294;2022-07-25T11:58:41;7.45;;;5.63;;
19231;SDS011;9750;48.730;10.294;2022-07-25T12:01:13;7.45;;;6.30;;
19231;SDS011;9750;48.730;10.294;2022-07-25T12:03:41;7.03;;;6.28;;
19231;SDS011;9750;48.730;10.294;2022-07-25T12:06:11;8.73;;;6.22;;
19231;SDS011;9750;48.730;10.294;2022-07-25T12:08:39;7.60;;;7.00;;
19231;SDS011;9750;48.730;10.294;2022-07-25T12:11:17;6.75;;;6.10;;
19231;SDS011;9750;48.730;10.294;2022-07-25T12:13:45;6.63;;;6.13;;
19231;SDS011;9750;48.730;10.294;2022-07-25T12:16:13;6.93;;;6.32;;
19231;SDS011;9750;48.730;10.294;2022-07-25T12:18:40;7.20;;;6.60;;
19231;SDS011;9750;48.730;10.294;2022-07-25T12:21:07;7.50;;;6.70;;
19231;SDS011;9750;48.730;10.294;2022-07-25T12:23:36;8.00;;;6.60;;
19231;SDS011;9750;48.730;10.294;2022-07-25T12:26:06;6.80;;;6.30;;
19231;SDS011;9750;48.730;10.294;2022-07-25T12:28:35;6.78;;;6.18;;
19231;SDS011;9750;48.730;10.294;2022-07-25T12:31:02;7.75;;;7.05;;
19231;SDS011;9750;48.730;10.294;2022-07-25T12:33:30;7.07;;;6.43;;
19231;SDS011;9750;48.730;10.294;2022-07-25T12:35:58;7.53;;;6.78;;
19231;SDS011;9750;48.730;10.294;2022-07-25T12:38:25;7.75;;;7.03;;
19231;SDS011;9750;48.730;10.294;2022-07-25T12:40:54;7.53;;;6.82;;
19231;SDS011;9750;48.730;10.294;2022-07-25T12:43:22;7.88;;;7.28;;
19231;SDS011;9750;48.730;10.294;2022-07-25T12:45:49;7.07;;;6.50;;
19231;SDS011;9750;48.730;10.294;2022-07-25T12:48:17;7.88;;;7.28;;
19231;SDS011;9750;48.730;10.294;2022-07-25T12:50:44;8.07;;;7.38;;
19231;SDS011;9750;48.730;10.294;2022-07-25T12:53:11;7.80;;;7.05;;
19231;SDS011;9750;48.730;10.294;2022-07-25T12:55:39;8.52;;;7.25;;
19231;SDS011;9750;48.730;10.294;2022-07-25T12:58:08;8.93;;;7.47;;
19231;SDS011;9750;48.730;10.294;2022-07-25T13:00:37;7.88;;;7.18;;
19231;SDS011;9750;48.730;10.294;2022-07-25T13:06:26;7.95;;;7.28;;
19231;SDS011;9750;48.730;10.294;2022-07-25T13:08:54;7.07;;;6.47;;
19231;SDS011;9750;48.730;10.294;2022-07-25T13:11:22;7.95;;;7.05;;
19231;SDS011;9750;48.730;10.294;2022-07-25T13:13:51;7.32;;;6.72;;
19231;SDS011;9750;48.730;10.294;2022-07-25T13:16:18;7.28;;;6.68;;
19231;SDS011;9750;48.730;10.294;2022-07-25T13:18:45;8.20;;;7.50;;
19231;SDS011;9750;48.730;10.294;2022-07-25T13:21:13;7.88;;;7.28;;
19231;SDS011;9750;48.730;10.294;2022-07-25T13:23:40;8.05;;;7.03;;
19231;SDS011;9750;48.730;10.294;2022-07-25T13:26:08;7.55;;;6.80;;
19231;SDS011;9750;48.730;10.294;2022-07-25T13:28:35;7.65;;;7.05;;
19231;SDS011;9750;48.730;10.294;2022-07-25T13:31:04;8.48;;;7.78;;
19231;SDS011;9750;48.730;10.294;2022-07-25T13:33:32;8.82;;;8.05;;
19231;SDS011;9750;48.730;10.294;2022-07-25T13:35:59;8.00;;;7.40;;
19231;SDS011;9750;48.730;10.294;2022-07-25T13:38:27;8.07;;;7.35;;
19231;SDS011;9750;48.730;10.294;2022-07-25T13:40:54;8.23;;;7.32;;
19231;SDS011;9750;48.730;10.294;2022-07-25T13:43:22;7.75;;;7.18;;
19231;SDS011;9750;48.730;10.294;2022-07-25T13:45:49;8.07;;;7.47;;
19231;SDS011;9750;48.730;10.294;2022-07-25T13:48:18;7.35;;;6.82;;
19231;SDS011;9750;48.730;10.294;2022-07-25T13:50:45;8.18;;;7.47;;
19231;SDS011;9750;48.730;10.294;2022-07-25T13:56:34;7.47;;;6.88;;
19231;SDS011;9750;48.730;10.294;2022-07-25T13:59:02;7.85;;;7.22;;
19231;SDS011;9750;48.730;10.294;2022-07-25T14:01:29;8.00;;;7.25;;
19231;SDS011;9750;48.730;10.294;2022-07-25T14:03:58;7.63;;;7.03;;
19231;SDS011;9750;48.730;10.294;2022-07-25T14:06:25;6.88;;;6.20;;
19231;SDS011;9750;48.730;10.294;2022-07-25T14:08:53;6.82;;;6.32;;
19231;SDS011;9750;48.730;10.294;2022-07-25T14:11:20;6.00;;;5.57;;
19231;SDS011;9750;48.730;10.294;2022-07-25T14:13:47;6.32;;;5.78;;
19231;SDS011;9750;48.730;10.294;2022-07-25T14:16:15;6.75;;;5.80;;
19231;SDS011;9750;48.730;10.294;2022-07-25T14:18:44;6.60;;;6.05;;
19231;SDS011;9750;48.730;10.294;2022-07-25T14:21:13;6.70;;;6.20;;
19231;SDS011;9750;48.730;10.294;2022-07-25T14:23:40;6.60;;;6.10;;
19231;SDS011;9750;48.730;10.294;2022-07-25T14:26:07;5.82;;;5.32;;
19231;SDS011;9750;48.730;10.294;2022-07-25T14:28:35;6.43;;;5.82;;
19231;SDS011;9750;48.730;10.294;2022-07-25T14:31:03;8.10;;;5.82;;
19231;SDS011;9750;48.730;10.294;2022-07-25T14:33:30;5.90;;;5.38;;
19231;SDS011;9750;48.730;10.294;2022-07-25T14:36:02;6.43;;;5.93;;
19231;SDS011;9750;48.730;10.294;2022-07-25T14:38:31;6.00;;;5.50;;
19231;SDS011;9750;48.730;10.294;2022-07-25T14:40:58;6.38;;;5.78;;
19231;SDS011;9750;48.730;10.294;2022-07-25T14:43:28;5.50;;;5.07;;
19231;SDS011;9750;48.730;10.294;2022-07-25T14:45:55;6.70;;;6.10;;
19231;SDS011;9750;48.730;10.294;2022-07-25T14:48:23;6.38;;;5.78;;
19231;SDS011;9750;48.730;10.294;2022-07-25T14:50:50;6.60;;;5.55;;
19231;SDS011;9750;48.730;10.294;2022-07-25T14:53:17;6.45;;;5.95;;
19231;SDS011;9750;48.730;10.294;2022-07-25T14:55:46;5.85;;;5.10;;
19231;SDS011;9750;48.730;10.294;2022-07-25T14:58:13;5.53;;;5.03;;